sensor_id;sensor_type;location;lat;lon;timestamp;temperature;humidity
7248;DHT22;3665;51.034;13.642;2023-07-13T00:00:55;19.70;1.00
7248;DHT22;3665;51.034;13.642;2023-07-13T00:05:39;19.60;1.00
7248;DHT22;3665;51.034;13.642;2023-07-13T00:10:24;19.50;1.00
7248;DHT22;3665;51.034;13.642;2023-07-13T00:15:21;19.60;1.00
7248;DHT22;3665;51.034;13.642;2023-07-13T00:20:06;19.50;1.00
7248;DHT22;3665;51.034;13.642;2023-07-13T00:24:50;19.40;1.00
7248;DHT22;3665;51.034;13.642;2023-07-13T00:29:35;19.40;1.00
7248;DHT22;3665;51.034;13.642;2023-07-13T00:34:19;19.40;1.00
7248;DHT22;3665;51.034;13.642;2023-07-13T00:39:04;19.40;1.00
7248;DHT22;3665;51.034;13.642;2023-07-13T00:43:47;19.20;1.00
7248;DHT22;3665;51.034;13.642;2023-07-13T00:48:34;18.90;1.00
7248;DHT22;3665;51.034;13.642;2023-07-13T00:53:19;18.40;1.00
7248;DHT22;3665;51.034;13.642;2023-07-13T00:58:02;18.10;1.00
7248;DHT22;3665;51.034;13.642;2023-07-13T01:02:49;18.00;1.00
7248;DHT22;3665;51.034;13.642;2023-07-13T01:07:34;17.70;1.00
7248;DHT22;3665;51.034;13.642;2023-07-13T01:12:18;17.40;1.00
7248;DHT22;3665;51.034;13.642;2023-07-13T01:17:02;17.40;1.00
7248;DHT22;3665;51.034;13.642;2023-07-13T01:21:51;17.30;1.00
7248;DHT22;3665;51.034;13.642;2023-07-13T01:26:35;17.20;1.00
7248;DHT22;3665;51.034;13.642;2023-07-13T01:31:22;17.20;1.00
7248;DHT22;3665;51.034;13.642;2023-07-13T01:36:06;17.20;1.00
7248;DHT22;3665;51.034;13.642;2023-07-13T01:40:53;17.10;1.00
7248;DHT22;3665;51.034;13.642;2023-07-13T01:45:39;17.10;1.00
7248;DHT22;3665;51.034;13.642;2023-07-13T01:50:25;17.20;1.00
7248;DHT22;3665;51.034;13.642;2023-07-13T01:55:09;17.10;1.00
7248;DHT22;3665;51.034;13.642;2023-07-13T01:59:53;17.00;1.00
7248;DHT22;3665;51.034;13.642;2023-07-13T02:04:37;17.00;1.00
7248;DHT22;3665;51.034;13.642;2023-07-13T02:09:20;16.90;1.00
7248;DHT22;3665;51.034;13.642;2023-07-13T02:14:04;16.70;1.00
7248;DHT22;3665;51.034;13.642;2023-07-13T02:18:49;16.60;1.00
7248;DHT22;3665;51.034;13.642;2023-07-13T02:23:34;16.40;1.00
7248;DHT22;3665;51.034;13.642;2023-07-13T02:28:17;16.30;1.00
7248;DHT22;3665;51.034;13.642;2023-07-13T02:33:01;16.40;1.00
7248;DHT22;3665;51.034;13.642;2023-07-13T02:37:46;16.40;1.00
7248;DHT22;3665;51.034;13.642;2023-07-13T02:42:29;16.40;1.00
7248;DHT22;3665;51.034;13.642;2023-07-13T02:47:12;16.40;1.00
7248;DHT22;3665;51.034;13.642;2023-07-13T02:51:57;16.50;1.00
7248;DHT22;3665;51.034;13.642;2023-07-13T02:56:41;16.50;1.00
7248;DHT22;3665;51.034;13.642;2023-07-13T03:01:25;16.50;1.00
7248;DHT22;3665;51.034;13.642;2023-07-13T03:06:09;16.40;1.00
7248;DHT22;3665;51.034;13.642;2023-07-13T03:11:02;16.40;1.00
7248;DHT22;3665;51.034;13.642;2023-07-13T03:15:51;16.30;1.00
7248;DHT22;3665;51.034;13.642;2023-07-13T03:20:34;16.40;1.00
7248;DHT22;3665;51.034;13.642;2023-07-13T03:25:18;16.30;1.00
7248;DHT22;3665;51.034;13.642;2023-07-13T03:30:02;16.40;1.00
7248;DHT22;3665;51.034;13.642;2023-07-13T03:34:48;16.40;1.00
7248;DHT22;3665;51.034;13.642;2023-07-13T03:39:32;16.50;1.00
7248;DHT22;3665;51.034;13.642;2023-07-13T03:44:17;16.50;1.00
7248;DHT22;3665;51.034;13.642;2023-07-13T03:49:05;16.50;1.00
7248;DHT22;3665;51.034;13.642;2023-07-13T03:53:50;16.70;1.00
7248;DHT22;3665;51.034;13.642;2023-07-13T03:58:36;16.70;1.00
7248;DHT22;3665;51.034;13.642;2023-07-13T04:03:27;16.70;1.00
7248;DHT22;3665;51.034;13.642;2023-07-13T04:08:11;16.60;1.00
7248;DHT22;3665;51.034;13.642;2023-07-13T04:12:55;16.60;1.00
7248;DHT22;3665;51.034;13.642;2023-07-13T04:17:39;16.70;1.00
7248;DHT22;3665;51.034;13.642;2023-07-13T04:22:22;16.90;1.00
7248;DHT22;3665;51.034;13.642;2023-07-13T04:27:06;17.10;1.00
7248;DHT22;3665;51.034;13.642;2023-07-13T04:31:51;17.30;1.00
7248;DHT22;3665;51.034;13.642;2023-07-13T04:36:34;17.40;1.00
7248;DHT22;3665;51.034;13.642;2023-07-13T04:41:21;17.40;1.00
7248;DHT22;3665;51.034;13.642;2023-07-13T04:46:05;17.50;1.00
7248;DHT22;3665;51.034;13.642;2023-07-13T04:50:56;17.70;1.00
7248;DHT22;3665;51.034;13.642;2023-07-13T04:55:40;17.70;1.00
7248;DHT22;3665;51.034;13.642;2023-07-13T05:00:23;17.60;1.00
7248;DHT22;3665;51.034;13.642;2023-07-13T05:05:08;17.70;1.00
7248;DHT22;3665;51.034;13.642;2023-07-13T05:09:53;17.90;1.00
7248;DHT22;3665;51.034;13.642;2023-07-13T05:14:37;18.00;1.00
7248;DHT22;3665;51.034;13.642;2023-07-13T05:19:20;18.10;1.00
7248;DHT22;3665;51.034;13.642;2023-07-13T05:24:05;18.60;1.00
7248;DHT22;3665;51.034;13.642;2023-07-13T05:29:07;18.80;1.00
7248;DHT22;3665;51.034;13.642;2023-07-13T05:33:50;18.80;1.00
7248;DHT22;3665;51.034;13.642;2023-07-13T05:38:33;18.80;1.00
7248;DHT22;3665;51.034;13.642;2023-07-13T05:43:17;18.90;1.00
7248;DHT22;3665;51.034;13.642;2023-07-13T05:48:02;19.20;1.00
7248;DHT22;3665;51.034;13.642;2023-07-13T05:52:47;19.30;1.00
7248;DHT22;3665;51.034;13.642;2023-07-13T05:57:31;19.40;1.00
7248;DHT22;3665;51.034;13.642;2023-07-13T06:02:14;19.40;1.00
7248;DHT22;3665;51.034;13.642;2023-07-13T06:06:59;19.80;1.00
7248;DHT22;3665;51.034;13.642;2023-07-13T06:11:43;20.10;1.00
7248;DHT22;3665;51.034;13.642;2023-07-13T06:16:27;20.90;1.00
7248;DHT22;3665;51.034;13.642;2023-07-13T06:21:12;21.50;1.00
7248;DHT22;3665;51.034;13.642;2023-07-13T06:25:57;22.30;1.00
7248;DHT22;3665;51.034;13.642;2023-07-13T06:30:40;22.80;1.00
7248;DHT22;3665;51.034;13.642;2023-07-13T06:35:24;23.00;1.00
7248;DHT22;3665;51.034;13.642;2023-07-13T06:40:08;23.10;1.00
7248;DHT22;3665;51.034;13.642;2023-07-13T06:44:53;23.30;1.00
7248;DHT22;3665;51.034;13.642;2023-07-13T06:49:37;23.80;1.00
7248;DHT22;3665;51.034;13.642;2023-07-13T06:54:20;24.30;1.00
7248;DHT22;3665;51.034;13.642;2023-07-13T06:59:03;24.60;1.00
7248;DHT22;3665;51.034;13.642;2023-07-13T07:03:48;24.60;1.00
7248;DHT22;3665;51.034;13.642;2023-07-13T07:08:32;24.00;1.00
7248;DHT22;3665;51.034;13.642;2023-07-13T07:13:15;24.00;1.00
7248;DHT22;3665;51.034;13.642;2023-07-13T07:17:58;23.70;1.00
7248;DHT22;3665;51.034;13.642;2023-07-13T07:22:44;23.80;1.00
7248;DHT22;3665;51.034;13.642;2023-07-13T07:27:27;24.60;1.00
7248;DHT22;3665;51.034;13.642;2023-07-13T07:32:14;25.40;1.00
7248;DHT22;3665;51.034;13.642;2023-07-13T07:37:17;26.20;1.00
7248;DHT22;3665;51.034;13.642;2023-07-13T07:42:06;26.90;1.00
7248;DHT22;3665;51.034;13.642;2023-07-13T07:46:49;26.90;1.00
7248;DHT22;3665;51.034;13.642;2023-07-13T07:51:33;26.40;1.00
7248;DHT22;3665;51.034;13.642;2023-07-13T07:56:16;26.90;1.00
7248;DHT22;3665;51.034;13.642;2023-07-13T08:01:05;26.70;1.00
7248;DHT22;3665;51.034;13.642;2023-07-13T08:05:52;26.00;1.00
7248;DHT22;3665;51.034;13.642;2023-07-13T08:10:56;25.50;1.00
7248;DHT22;3665;51.034;13.642;2023-07-13T08:15:44;25.70;1.00
7248;DHT22;3665;51.034;13.642;2023-07-13T08:20:29;25.80;1.00
7248;DHT22;3665;51.034;13.642;2023-07-13T08:25:12;26.10;1.00
7248;DHT22;3665;51.034;13.642;2023-07-13T08:29:56;27.00;1.00
7248;DHT22;3665;51.034;13.642;2023-07-13T08:34:40;27.60;1.00
7248;DHT22;3665;51.034;13.642;2023-07-13T08:39:24;27.60;1.00
7248;DHT22;3665;51.034;13.642;2023-07-13T08:44:19;27.40;1.00
7248;DHT22;3665;51.034;13.642;2023-07-13T08:49:10;27.40;1.00
7248;DHT22;3665;51.034;13.642;2023-07-13T08:53:59;27.00;1.00
7248;DHT22;3665;51.034;13.642;2023-07-13T08:58:45;26.60;1.00
7248;DHT22;3665;51.034;13.642;2023-07-13T09:03:35;26.40;1.00
7248;DHT22;3665;51.034;13.642;2023-07-13T09:08:45;26.30;1.00
7248;DHT22;3665;51.034;13.642;2023-07-13T09:13:35;26.20;1.00
7248;DHT22;3665;51.034;13.642;2023-07-13T09:18:27;26.50;1.00
7248;DHT22;3665;51.034;13.642;2023-07-13T09:23:15;27.10;1.00
7248;DHT22;3665;51.034;13.642;2023-07-13T09:28:02;27.10;1.00
7248;DHT22;3665;51.034;13.642;2023-07-13T09:32:53;25.50;1.00
7248;DHT22;3665;51.034;13.642;2023-07-13T09:37:38;26.00;1.00
7248;DHT22;3665;51.034;13.642;2023-07-13T09:42:22;25.70;1.00
7248;DHT22;3665;51.034;13.642;2023-07-13T09:47:16;26.50;1.00
7248;DHT22;3665;51.034;13.642;2023-07-13T09:52:02;26.10;1.00
7248;DHT22;3665;51.034;13.642;2023-07-13T09:56:48;26.40;1.00
7248;DHT22;3665;51.034;13.642;2023-07-13T10:01:33;27.20;1.00
7248;DHT22;3665;51.034;13.642;2023-07-13T10:06:18;27.50;1.00
7248;DHT22;3665;51.034;13.642;2023-07-13T10:11:10;27.50;1.00
7248;DHT22;3665;51.034;13.642;2023-07-13T10:15:57;26.90;1.00
7248;DHT22;3665;51.034;13.642;2023-07-13T10:20:42;26.50;1.00
7248;DHT22;3665;51.034;13.642;2023-07-13T10:25:28;27.10;1.00
7248;DHT22;3665;51.034;13.642;2023-07-13T10:30:17;26.60;1.00
7248;DHT22;3665;51.034;13.642;2023-07-13T10:35:04;26.50;1.00
7248;DHT22;3665;51.034;13.642;2023-07-13T10:39:51;27.00;1.00
7248;DHT22;3665;51.034;13.642;2023-07-13T10:44:36;27.60;1.00
7248;DHT22;3665;51.034;13.642;2023-07-13T10:49:20;27.60;1.00
7248;DHT22;3665;51.034;13.642;2023-07-13T10:54:20;27.80;1.00
7248;DHT22;3665;51.034;13.642;2023-07-13T10:59:11;28.10;1.00
7248;DHT22;3665;51.034;13.642;2023-07-13T11:04:01;27.70;1.00
7248;DHT22;3665;51.034;13.642;2023-07-13T11:08:54;27.10;1.00
7248;DHT22;3665;51.034;13.642;2023-07-13T11:13:57;27.40;1.00
7248;DHT22;3665;51.034;13.642;2023-07-13T11:18:45;27.60;1.00
7248;DHT22;3665;51.034;13.642;2023-07-13T11:23:30;28.50;1.00
7248;DHT22;3665;51.034;13.642;2023-07-13T11:28:22;28.20;1.00
7248;DHT22;3665;51.034;13.642;2023-07-13T11:33:19;28.00;1.00
7248;DHT22;3665;51.034;13.642;2023-07-13T11:38:12;27.70;1.00
7248;DHT22;3665;51.034;13.642;2023-07-13T11:43:01;27.40;1.00
7248;DHT22;3665;51.034;13.642;2023-07-13T11:47:45;27.50;1.00
7248;DHT22;3665;51.034;13.642;2023-07-13T11:52:33;27.00;1.00
7248;DHT22;3665;51.034;13.642;2023-07-13T11:57:28;27.50;1.00
7248;DHT22;3665;51.034;13.642;2023-07-13T12:02:17;28.00;1.00
7248;DHT22;3665;51.034;13.642;2023-07-13T12:07:07;28.80;1.00
7248;DHT22;3665;51.034;13.642;2023-07-13T12:11:53;29.20;1.00
7248;DHT22;3665;51.034;13.642;2023-07-13T12:16:37;29.30;1.00
7248;DHT22;3665;51.034;13.642;2023-07-13T12:21:28;29.70;1.00
7248;DHT22;3665;51.034;13.642;2023-07-13T12:26:14;29.30;1.00
7248;DHT22;3665;51.034;13.642;2023-07-13T12:31:00;28.40;1.00
7248;DHT22;3665;51.034;13.642;2023-07-13T12:35:46;28.20;1.00
7248;DHT22;3665;51.034;13.642;2023-07-13T12:40:33;28.30;1.00
7248;DHT22;3665;51.034;13.642;2023-07-13T12:45:21;28.30;1.00
7248;DHT22;3665;51.034;13.642;2023-07-13T12:50:16;28.70;1.00
7248;DHT22;3665;51.034;13.642;2023-07-13T12:55:05;29.20;1.00
7248;DHT22;3665;51.034;13.642;2023-07-13T12:59:57;29.10;1.00
7248;DHT22;3665;51.034;13.642;2023-07-13T13:04:41;29.00;1.00
7248;DHT22;3665;51.034;13.642;2023-07-13T13:09:27;28.10;1.00
7248;DHT22;3665;51.034;13.642;2023-07-13T13:14:10;28.40;1.00
7248;DHT22;3665;51.034;13.642;2023-07-13T13:18:55;28.80;1.00
7248;DHT22;3665;51.034;13.642;2023-07-13T13:23:40;28.70;1.00
7248;DHT22;3665;51.034;13.642;2023-07-13T13:28:25;28.20;1.00
7248;DHT22;3665;51.034;13.642;2023-07-13T13:33:09;28.50;1.00
7248;DHT22;3665;51.034;13.642;2023-07-13T13:37:57;27.40;1.00
7248;DHT22;3665;51.034;13.642;2023-07-13T13:42:41;27.60;1.00
7248;DHT22;3665;51.034;13.642;2023-07-13T13:47:31;27.50;1.00
7248;DHT22;3665;51.034;13.642;2023-07-13T13:52:15;27.60;1.00
7248;DHT22;3665;51.034;13.642;2023-07-13T13:56:59;28.10;1.00
7248;DHT22;3665;51.034;13.642;2023-07-13T14:01:44;28.70;1.00
7248;DHT22;3665;51.034;13.642;2023-07-13T14:06:33;28.80;1.00
7248;DHT22;3665;51.034;13.642;2023-07-13T14:11:19;28.40;1.00
7248;DHT22;3665;51.034;13.642;2023-07-13T14:16:07;29.10;1.00
7248;DHT22;3665;51.034;13.642;2023-07-13T14:20:54;29.00;1.00
7248;DHT22;3665;51.034;13.642;2023-07-13T14:25:39;28.70;1.00
7248;DHT22;3665;51.034;13.642;2023-07-13T14:30:22;28.30;1.00
7248;DHT22;3665;51.034;13.642;2023-07-13T14:35:08;27.60;1.00
7248;DHT22;3665;51.034;13.642;2023-07-13T14:39:52;27.90;1.00
7248;DHT22;3665;51.034;13.642;2023-07-13T14:44:38;28.00;1.00
7248;DHT22;3665;51.034;13.642;2023-07-13T14:49:29;28.20;1.00
7248;DHT22;3665;51.034;13.642;2023-07-13T14:54:14;28.00;1.00
7248;DHT22;3665;51.034;13.642;2023-07-13T14:58:57;27.60;1.00
7248;DHT22;3665;51.034;13.642;2023-07-13T15:03:46;27.40;1.00
7248;DHT22;3665;51.034;13.642;2023-07-13T15:08:31;27.70;1.00
7248;DHT22;3665;51.034;13.642;2023-07-13T15:13:16;28.10;1.00
7248;DHT22;3665;51.034;13.642;2023-07-13T15:18:00;28.10;1.00
7248;DHT22;3665;51.034;13.642;2023-07-13T15:22:46;28.00;1.00
7248;DHT22;3665;51.034;13.642;2023-07-13T15:27:30;27.60;1.00
7248;DHT22;3665;51.034;13.642;2023-07-13T15:32:14;27.70;1.00
7248;DHT22;3665;51.034;13.642;2023-07-13T15:36:58;27.70;1.00
7248;DHT22;3665;51.034;13.642;2023-07-13T15:41:45;27.40;1.00
7248;DHT22;3665;51.034;13.642;2023-07-13T15:46:30;27.20;1.00
7248;DHT22;3665;51.034;13.642;2023-07-13T15:51:20;26.90;1.00
7248;DHT22;3665;51.034;13.642;2023-07-13T15:56:17;26.80;1.00
7248;DHT22;3665;51.034;13.642;2023-07-13T16:01:03;26.80;1.00
7248;DHT22;3665;51.034;13.642;2023-07-13T16:05:49;26.90;1.00
7248;DHT22;3665;51.034;13.642;2023-07-13T16:10:36;26.90;1.00
7248;DHT22;3665;51.034;13.642;2023-07-13T16:15:22;26.90;1.00
7248;DHT22;3665;51.034;13.642;2023-07-13T16:20:08;26.60;1.00
7248;DHT22;3665;51.034;13.642;2023-07-13T16:24:54;26.80;1.00
7248;DHT22;3665;51.034;13.642;2023-07-13T16:29:39;26.30;1.00
7248;DHT22;3665;51.034;13.642;2023-07-13T16:34:23;25.70;1.00
7248;DHT22;3665;51.034;13.642;2023-07-13T16:39:13;25.30;1.00
7248;DHT22;3665;51.034;13.642;2023-07-13T16:43:58;24.70;1.00
7248;DHT22;3665;51.034;13.642;2023-07-13T16:48:41;25.00;1.00
7248;DHT22;3665;51.034;13.642;2023-07-13T16:53:27;25.60;1.00
7248;DHT22;3665;51.034;13.642;2023-07-13T16:58:13;26.20;1.00
7248;DHT22;3665;51.034;13.642;2023-07-13T17:02:59;26.00;1.00
7248;DHT22;3665;51.034;13.642;2023-07-13T17:07:45;25.70;1.00
7248;DHT22;3665;51.034;13.642;2023-07-13T17:12:29;25.10;1.00
7248;DHT22;3665;51.034;13.642;2023-07-13T17:17:19;24.60;1.00
7248;DHT22;3665;51.034;13.642;2023-07-13T17:22:04;24.50;1.00
7248;DHT22;3665;51.034;13.642;2023-07-13T17:26:51;24.40;1.00
7248;DHT22;3665;51.034;13.642;2023-07-13T17:31:37;24.40;1.00
7248;DHT22;3665;51.034;13.642;2023-07-13T17:36:22;24.40;1.00
7248;DHT22;3665;51.034;13.642;2023-07-13T17:41:05;24.50;1.00
7248;DHT22;3665;51.034;13.642;2023-07-13T17:45:57;24.30;1.00
7248;DHT22;3665;51.034;13.642;2023-07-13T17:50:41;24.30;1.00
7248;DHT22;3665;51.034;13.642;2023-07-13T17:55:28;24.00;1.00
7248;DHT22;3665;51.034;13.642;2023-07-13T18:00:13;23.80;1.00
7248;DHT22;3665;51.034;13.642;2023-07-13T18:05:12;23.60;1.00
7248;DHT22;3665;51.034;13.642;2023-07-13T18:09:57;23.30;1.00
7248;DHT22;3665;51.034;13.642;2023-07-13T18:14:42;23.20;1.00
7248;DHT22;3665;51.034;13.642;2023-07-13T18:19:31;23.00;1.00
7248;DHT22;3665;51.034;13.642;2023-07-13T18:24:15;22.60;1.00
7248;DHT22;3665;51.034;13.642;2023-07-13T18:29:03;22.20;99.90
7248;DHT22;3665;51.034;13.642;2023-07-13T18:33:54;21.80;99.90
7248;DHT22;3665;51.034;13.642;2023-07-13T18:38:43;21.50;99.90
7248;DHT22;3665;51.034;13.642;2023-07-13T18:43:33;21.10;99.90
7248;DHT22;3665;51.034;13.642;2023-07-13T18:48:23;20.60;99.90
7248;DHT22;3665;51.034;13.642;2023-07-13T18:53:12;20.40;99.90
7248;DHT22;3665;51.034;13.642;2023-07-13T18:58:01;20.00;99.90
7248;DHT22;3665;51.034;13.642;2023-07-13T19:02:50;19.70;99.90
7248;DHT22;3665;51.034;13.642;2023-07-13T19:07:34;19.50;99.90
7248;DHT22;3665;51.034;13.642;2023-07-13T19:12:20;19.20;99.90
7248;DHT22;3665;51.034;13.642;2023-07-13T19:17:04;19.10;99.90
7248;DHT22;3665;51.034;13.642;2023-07-13T19:21:56;18.90;99.90
7248;DHT22;3665;51.034;13.642;2023-07-13T19:26:43;18.80;99.90
7248;DHT22;3665;51.034;13.642;2023-07-13T19:31:39;18.70;99.90
7248;DHT22;3665;51.034;13.642;2023-07-13T19:36:25;18.80;99.90
7248;DHT22;3665;51.034;13.642;2023-07-13T19:41:12;18.70;99.90
7248;DHT22;3665;51.034;13.642;2023-07-13T19:45:56;18.60;99.90
7248;DHT22;3665;51.034;13.642;2023-07-13T19:50:44;18.50;99.90
7248;DHT22;3665;51.034;13.642;2023-07-13T19:55:28;18.50;99.90
7248;DHT22;3665;51.034;13.642;2023-07-13T20:00:19;18.40;99.90
7248;DHT22;3665;51.034;13.642;2023-07-13T20:05:07;18.30;99.90
7248;DHT22;3665;51.034;13.642;2023-07-13T20:09:53;18.20;99.90
7248;DHT22;3665;51.034;13.642;2023-07-13T20:14:36;18.20;99.90
7248;DHT22;3665;51.034;13.642;2023-07-13T20:19:20;18.10;99.90
7248;DHT22;3665;51.034;13.642;2023-07-13T20:24:12;18.00;99.90
7248;DHT22;3665;51.034;13.642;2023-07-13T20:28:58;18.10;99.90
7248;DHT22;3665;51.034;13.642;2023-07-13T20:33:42;18.10;99.90
7248;DHT22;3665;51.034;13.642;2023-07-13T20:38:28;18.30;1.00
